Latest Weather Observations for Yanco

IDN60801

Issued at 12:03 pm EST Wednesday 2 September 2015 (issued every 30 minutes, with the page automatically refreshed every 10 minutes)

About weather observations | Map of weather stations | Latest weather observations for NSW | Other Formats
Station Details ID: 074037 Name: YANCO AGRICULTURAL INSTITUTE Lat: -34.62 Lon: 146.43 Height: 164.0 m
Data from the previous 72 hours. | See also: Recent months at Yanco
Date/Time
EST
Temp
°C
App
Temp
°C
Dew
Point
Rel
Hum
%
Delta-T
°C
Wind Press
QNH
hPa
Press
MSL
hPa
Rain
since 9 am
mm
Dir
 
Spd
km/h
Gust
km/h
Spd
kts
Gust
kts
02/12:00pm 17.1 11.1 7.2 52 5.0 NNE 28 39 15 21 - - 0.0
02/11:30am 16.7 11.1 7.1 53 4.8 NE 26 37 14 20 - - 0.0
02/11:00am 16.5 11.7 7.2 54 4.7 NNE 22 35 12 19 - - 0.0
02/10:30am 15.5 11.1 7.5 59 4.0 NE 20 28 11 15 - - 0.0
02/10:00am 14.3 9.4 7.1 62 3.5 NE 22 33 12 18 - - 0.0
02/09:30am 14.0 9.7 6.8 62 3.5 NE 19 26 10 14 - - 0.0
02/09:00am 13.4 9.0 6.5 63 3.3 NE 19 28 10 15 - - 0.0
02/08:30am 11.8 9.2 6.1 68 2.7 NE 9 19 5 10 - - 0.0
02/08:00am 10.4 6.7 6.2 75 2.0 ENE 15 22 8 12 - - 0.0
02/07:30am 10.0 6.2 5.6 74 2.0 ENE 15 20 8 11 - - 0.0
02/07:00am 10.6 5.8 4.9 68 2.6 NE 19 28 10 15 - - 0.0
02/06:30am 10.2 5.8 4.8 69 2.5 NE 17 22 9 12 - - 0.0
02/06:00am 9.9 5.2 5.1 72 2.2 NE 19 24 10 13 - - 0.0
02/05:30am 7.7 4.9 5.0 83 1.2 ENE 9 15 5 8 - - 0.0
02/05:00am 8.5 5.3 5.3 80 1.4 NE 11 17 6 9 - - 0.0
02/04:30am 6.8 3.2 4.8 87 0.9 ENE 13 17 7 9 - - 0.0
02/04:00am 7.3 3.3 4.8 84 1.1 E 15 17 8 9 - - 0.0
02/03:30am 7.3 2.9 4.8 84 1.1 E 17 19 9 10 - - 0.0
02/03:00am 7.1 3.4 4.6 84 1.1 E 13 17 7 9 - - 0.0
02/02:30am 7.1 3.1 4.8 85 1.0 E 15 17 8 9 - - 0.0
02/02:00am 6.9 2.9 4.9 87 0.9 E 15 17 8 9 - - 0.0
02/01:30am 7.2 3.2 5.0 86 1.0 E 15 17 8 9 - - 0.0
02/01:00am 7.3 3.7 5.1 86 1.0 E 13 17 7 9 - - 0.0
02/12:30am 7.8 4.3 5.4 85 1.1 E 13 17 7 9 - - 0.0
02/12:00am 8.0 4.2 5.6 85 1.1 E 15 17 8 9 - - 0.0
 
Date/Time
EST
Temp
°C
App
Temp
°C
Dew
Point
Rel
Hum
%
Delta-T
°C
Wind Press
QNH
hPa
Press
MSL
hPa
Rain
since 9 am
mm
Dir
 
Spd
km/h
Gust
km/h
Spd
kts
Gust
kts
01/11:30pm 8.4 5.0 5.7 83 1.2 E 13 17 7 9 - - 0.0
01/11:00pm 8.4 5.0 5.7 83 1.2 E 13 15 7 8 - - 0.0
01/10:30pm 8.3 5.2 5.6 83 1.2 ENE 11 11 6 6 - - 0.0
01/10:00pm 8.6 5.5 5.7 82 1.3 E 11 13 6 7 - - 0.0
01/09:30pm 9.6 6.9 5.8 77 1.8 ENE 9 11 5 6 - - 0.0
01/09:00pm 9.9 6.9 5.9 76 1.9 ENE 11 13 6 7 - - 0.0
01/08:30pm 10.1 7.5 5.9 75 2.0 ENE 9 11 5 6 - - 0.0
01/08:00pm 10.1 7.4 5.7 74 2.0 ENE 9 11 5 6 - - 0.0
01/07:30pm 10.5 8.5 6.1 74 2.1 ENE 6 9 3 5 - - 0.0
01/07:00pm 11.1 9.4 5.8 70 2.5 ENE 4 6 2 3 - - 0.0
01/06:30pm 11.8 10.0 5.4 65 3.0 NE 4 6 2 3 - - 0.0
01/06:00pm 12.0 10.4 6.3 68 2.7 ENE 4 6 2 3 - - 0.0
01/05:30pm 13.8 12.2 6.4 61 3.6 WSW 4 4 2 2 - - 0.0
01/05:00pm 14.5 13.3 4.8 52 4.6 CALM 0 2 0 1 - - 0.0
01/04:30pm 15.1 14.0 5.3 52 4.7 CALM 0 0 0 0 - - 0.0
01/04:00pm 15.4 13.3 5.6 52 4.7 WSW 6 11 3 6 - - 0.0
01/03:30pm 15.6 13.7 4.9 49 5.1 WSW 4 9 2 5 - - 0.0
01/03:00pm 15.5 13.4 6.5 55 4.4 SSW 7 15 4 8 - - 0.0
01/02:30pm 15.1 12.9 6.4 56 4.2 SW 7 19 4 10 - - 0.0
01/02:00pm 15.4 13.4 7.2 58 4.1 WSW 7 15 4 8 - - 0.0
01/01:30pm 14.8 11.9 6.6 58 4.0 WSW 11 15 6 8 - - 0.0
01/01:00pm 14.2 10.4 5.6 56 4.1 SW 15 24 8 13 - - 0.0
01/12:30pm 14.2 11.6 6.3 59 3.8 WSW 9 17 5 9 - - 0.0
01/12:00pm 13.7 11.1 6.3 61 3.6 SW 9 13 5 7 - - 0.0
01/11:30am 12.9 9.8 5.6 61 3.4 WNW 11 17 6 9 - - 0.0
01/11:00am 12.5 9.9 6.3 66 3.0 WNW 9 17 5 9 - - 0.0
01/10:30am 11.7 9.5 6.2 69 2.6 NW 7 11 4 6 - - 0.0
01/10:00am 10.9 9.0 6.8 76 2.0 NNW 6 11 3 6 - - 0.0
01/09:30am 9.6 7.4 6.3 80 1.5 NNW 7 9 4 5 - - 0.0
01/09:00am 8.0 5.9 6.5 90 0.7 NNW 7 9 4 5 - - 0.2
01/08:30am 6.1 3.8 5.8 98 0.1 NNW 7 9 4 5 - - 0.2
01/08:00am 4.9 2.6 4.8 99 0.0 NNW 6 9 3 5 - - 0.2
01/07:30am 3.9 1.4 3.8 99 0.0 N 6 7 3 4 - - 0.2
01/07:00am 3.3 0.7 3.2 99 0.0 N 6 7 3 4 - - 0.0
01/06:30am 3.3 0.7 3.2 99 0.0 N 6 6 3 3 - - 0.0
01/06:00am 3.5 1.3 3.4 99 0.0 N 4 6 2 3 - - 0.0
01/05:30am 3.5 0.9 3.4 99 0.0 N 6 6 3 3 - - 0.0
01/05:00am 3.5 1.3 3.4 99 0.0 N 4 6 2 3 - - 0.0
01/04:30am 2.6 0.6 2.2 97 0.2 NNW 2 4 1 2 - - 0.0
01/04:00am 4.4 2.4 4.3 99 0.0 N 4 4 2 2 - - 0.0
01/03:30am 4.5 2.1 4.2 98 0.1 N 6 6 3 3 - - 0.0
01/03:00am 4.5 2.5 4.4 99 0.0 N 4 4 2 2 - - 0.0
01/02:30am 4.6 2.6 4.3 98 0.1 N 4 4 2 2 - - 0.0
01/02:00am 5.1 2.8 4.8 98 0.1 N 6 7 3 4 - - 0.0
01/01:30am 5.0 3.0 4.6 97 0.2 N 4 6 2 3 - - 0.0
01/01:00am 5.4 3.5 4.8 96 0.3 N 4 4 2 2 - - 0.0
01/12:30am 5.7 3.8 5.1 96 0.3 N 4 6 2 3 - - 0.0
01/12:00am 5.7 3.8 5.0 95 0.3 N 4 6 2 3 - - 0.0
 
Date/Time
EST
Temp
°C
App
Temp
°C
Dew
Point
Rel
Hum
%
Delta-T
°C
Wind Press
QNH
hPa
Press
MSL
hPa
Rain
since 9 am
mm
Dir
 
Spd
km/h
Gust
km/h
Spd
kts
Gust
kts
31/11:30pm 6.0 4.1 5.1 94 0.4 N 4 6 2 3 - - 0.0
31/11:00pm 6.5 4.6 5.1 91 0.6 N 4 6 2 3 - - 0.0
31/10:30pm 7.3 5.5 5.4 88 0.9 W 4 6 2 3 - - 0.0
31/10:00pm 7.2 5.8 5.3 88 0.9 W 2 2 1 1 - - 0.0
31/09:30pm 7.3 5.9 5.3 87 0.9 W 2 4 1 2 - - 0.0
31/09:00pm 7.8 6.4 5.4 85 1.1 W 2 2 1 1 - - 0.0
31/08:30pm 8.1 6.3 5.4 83 1.2 W 4 4 2 2 - - 0.0
31/08:00pm 8.7 6.9 5.4 80 1.5 W 4 6 2 3 - - 0.0
31/07:30pm 8.8 7.0 5.4 79 1.5 W 4 6 2 3 - - 0.0
31/07:00pm 9.5 7.2 5.5 76 1.8 W 7 9 4 5 - - 0.0
31/06:30pm 9.8 7.7 5.6 75 1.9 W 6 7 3 4 - - 0.0
31/06:00pm 10.8 8.7 5.8 71 2.3 W 6 9 3 5 - - 0.0
31/05:30pm 12.1 9.4 5.7 65 3.0 WSW 9 15 5 8 - - 0.0
31/05:00pm 13.2 10.1 5.6 60 3.6 W 11 17 6 9 - - 0.0
31/04:30pm 13.8 10.4 5.7 58 3.9 WSW 13 22 7 12 - - 0.0
31/04:00pm 14.4 11.7 7.5 63 3.4 WSW 11 19 6 10 - - 0.0
31/03:30pm 14.6 12.6 7.2 61 3.7 W 7 17 4 9 - - 0.0
31/03:00pm 14.2 11.4 7.0 62 3.5 SW 11 17 6 9 - - 0.0
31/02:30pm 14.0 11.2 6.8 62 3.5 W 11 15 6 8 - - 0.0
31/02:00pm 13.7 11.3 7.2 65 3.2 W 9 17 5 9 - - 0.0
31/01:30pm 13.5 10.5 7.5 67 3.0 W 13 20 7 11 - - 0.0
31/01:00pm 13.4 10.9 8.3 71 2.6 W 11 17 6 9 - - 0.0
31/12:30pm 12.8 10.7 8.1 73 2.3 WSW 9 19 5 10 - - 0.0
31/12:00pm 12.1 9.5 7.6 74 2.2 W 11 15 6 8 - - 0.0
31/11:30am 11.4 8.6 7.1 75 2.1 WSW 11 15 6 8 - - 0.0
31/11:00am 11.0 8.9 6.7 75 2.0 WNW 7 11 4 6 - - 0.0
31/10:30am 10.1 7.9 6.3 77 1.8 W 7 9 4 5 - - 0.0
31/10:00am 8.9 6.9 6.3 84 1.2 WNW 6 9 3 5 - - 0.0
31/09:30am 7.5 5.2 5.5 87 0.9 WNW 7 9 4 5 - - 0.0
31/09:00am 6.1 4.3 5.4 95 0.3 W 4 9 2 5 - - 0.4
31/08:30am 4.7 2.7 4.6 99 0.0 W 4 6 2 3 - - 0.4
31/08:00am 4.0 2.3 3.9 99 0.0 NW 2 4 1 2 - - 0.4
31/07:30am 3.2 1.0 3.1 99 0.0 NNW 4 4 2 2 - - 0.4
31/07:00am 2.3 0.3 2.2 99 0.0 NNW 2 4 1 2 - - 0.4
31/06:30am 2.5 0.1 2.4 99 0.0 NNW 4 6 2 3 - - 0.2
31/06:00am 2.7 0.4 2.6 99 0.0 NNW 4 6 2 3 - - 0.2
31/05:30am 2.9 0.6 2.8 99 0.0 NNW 4 6 2 3 - - 0.2
31/05:00am 3.0 0.3 2.9 99 0.0 NNW 6 6 3 3 - - 0.2
31/04:30am 3.5 0.9 3.4 99 0.0 NNW 6 7 3 4 - - 0.2
31/04:00am 3.8 1.7 3.7 99 0.0 NNW 4 6 2 3 - - 0.2
31/03:30am 4.0 1.9 3.9 99 0.0 NNW 4 6 2 3 - - 0.2
31/03:00am 4.3 2.3 4.2 99 0.0 NNW 4 6 2 3 - - 0.2
31/02:30am 4.7 2.4 4.6 99 0.0 SW 6 6 3 3 - - 0.2
31/02:00am 5.1 3.2 4.8 98 0.1 SW 4 4 2 2 - - 0.2
31/01:30am 5.2 3.6 4.6 96 0.3 SW 2 4 1 2 - - 0.2
31/01:00am 5.8 3.8 4.6 92 0.5 SW 4 4 2 2 - - 0.2
31/12:30am 6.2 4.4 5.2 93 0.4 SW 4 6 2 3 - - 0.2
31/12:00am 6.2 3.7 5.0 92 0.5 SW 7 7 4 4 - - 0.2
 
Date/Time
EST
Temp
°C
App
Temp
°C
Dew
Point
Rel
Hum
%
Delta-T
°C
Wind Press
QNH
hPa
Press
MSL
hPa
Rain
since 9 am
mm
Dir
 
Spd
km/h
Gust
km/h
Spd
kts
Gust
kts
30/11:30pm 6.6 4.2 5.2 91 0.6 SW 7 9 4 5 - - 0.2
30/11:00pm 6.8 4.6 5.4 91 0.6 SW 6 6 3 3 - - 0.2
30/10:30pm 7.1 5.0 5.7 91 0.6 SW 6 7 3 4 - - 0.2
30/10:00pm 7.5 5.4 6.0 90 0.7 SW 6 7 3 4 - - 0.2
30/09:30pm 8.1 6.1 6.1 87 0.9 SW 6 7 3 4 - - 0.2
30/09:00pm 8.3 6.1 6.4 88 0.9 SW 7 9 4 5 - - 0.2
30/08:30pm 8.7 6.5 6.3 85 1.1 SW 7 9 4 5 - - 0.2
30/08:00pm 9.6 7.2 7.0 84 1.2 SW 9 9 5 5 - - 0.2
30/07:30pm 10.1 8.0 6.8 80 1.6 SW 7 9 4 5 - - 0.2
30/07:00pm 10.6 8.5 6.7 77 1.9 SSW 7 9 4 5 - - 0.2
30/06:30pm 11.0 8.5 6.7 75 2.0 SSW 9 11 5 6 - - 0.2
30/06:00pm 11.2 9.6 7.9 80 1.6 S 6 7 3 4 - - 0.2
30/05:30pm 11.8 10.5 7.5 75 2.1 S 4 6 2 3 - - 0.2
30/05:00pm 12.5 10.7 7.0 69 2.7 S 6 7 3 4 - - 0.2
30/04:30pm 12.8 10.4 6.8 67 2.9 S 9 13 5 7 - - 0.2
30/04:00pm 13.7 11.3 6.8 63 3.4 SSW 9 13 5 7 - - 0.2
30/03:30pm 12.8 10.7 6.6 66 3.0 S 7 15 4 8 - - 0.2
30/03:00pm 13.2 11.1 6.5 64 3.2 S 7 15 4 8 - - 0.2
30/02:30pm 12.9 11.0 6.7 66 3.0 S 6 9 3 5 - - 0.2
30/02:00pm 13.0 11.7 7.7 70 2.6 SW 4 7 2 4 - - 0.2
30/01:30pm 11.7 9.7 7.2 74 2.2 SSW 7 13 4 7 - - 0.0
30/01:00pm 10.3 8.3 7.0 80 1.6 S 7 9 4 5 - - 0.0
30/12:30pm 10.1 8.1 7.3 83 1.3 S 7 11 4 6 - - 0.0

Other Formats:

Comma delimited format used in spreadsheet applications
http://www.bom.gov.au/fwo/IDN60801/IDN60801.95705.axf

JavaScript Object Notation format (JSON) in row-major order
http://www.bom.gov.au/fwo/IDN60801/IDN60801.95705.json